Terminal Aerodrome Forecast
Issued by NWS Denver/Boulder, CO

Home | Current Version | Previous Version | Text Only | Print | Product List | Glossary On
Versions: 1 2 3 4 5 6 7 8 9 10 11 12 13 14 15 16 17 18 19 20 21 22 23 24 25 26 27 28 29 30 31 32 33 34 35 36 37 38 39 40 41 42 43 44 45 46 47 48 49 50
000
FTUS45 KBOU 312344 AAA
TAFDEN
TAF AMD
KDEN 312344Z 0100/0206 VRB05KT P6SM VCSH BKN040 BKN060
      TEMPO 0100/0101 3SM -SN BKN020
     FM010400 02015KT P6SM VCSH SCT020 BKN040
     FM010500 02014G24KT 3SM -SHSN SCT008 BKN015 OVC025
      TEMPO 0106/0110 3/4SM -SHSN VV008
     FM011000 03010KT 5SM -SN SCT018 BKN030
      TEMPO 0110/0113 1SM -SN BKN015
     FM011300 05007KT P6SM VCSH SCT012 BKN022
     FM011500 07007KT P6SM SCT020 BKN040
     FM011900 10007KT P6SM SCT040 BKN080
     FM020200 16007KT P6SM SCT060 BKN120=

USA.gov is the U.S. government's official web portal to all federal, state and local government web resources and services.